Hier das METAR für die 16 wichtigsten Deutschen Flughäfen.
(dauert ein wenig.... ich muss laden.....)

ODER
METAR nach ICAO Code suchen

Berlin - Schönefeld

EDDB

METAR
EDDB 261820Z 10006KT CAVOK 19/14 Q1017 NOSIG
EDDBMETAR lang
Berlin-Schoenefeld, Germany (EDDB) 52-23N 013-31E 50M
Sep 26, 2021 - 02:20 PM EDT / 2021.09.26 1820 UTC
Wind: from the E (100 degrees) at 7 MPH (6 KT):0
Visibility: greater than 7 mile(s):0
Temperature: 66 F (19 C)
Dew Point: 57 F (14 C)
Relative Humidity: 72%
Pressure (altimeter): 30.03 in. Hg (1017 hPa)
ob: EDDB 261820Z 10006KT CAVOK 19/14 Q1017 NOSIG
cycle: 18

Dresden

EDDC

METAR
EDDC 261820Z 17005KT CAVOK 19/13 Q1017 NOSIG
EDDCMETAR lang
Dresden-Klotzsche, Germany (EDDC) 51-08N 013-45E 232M
Sep 26, 2021 - 02:20 PM EDT / 2021.09.26 1820 UTC
Wind: from the S (170 degrees) at 6 MPH (5 KT):0
Visibility: greater than 7 mile(s):0
Temperature: 66 F (19 C)
Dew Point: 55 F (13 C)
Relative Humidity: 68%
Pressure (altimeter): 30.03 in. Hg (1017 hPa)
ob: EDDC 261820Z 17005KT CAVOK 19/13 Q1017 NOSIG
cycle: 18

Erfurt

EDDE

METAR
EDDE 261820Z 26005KT 9999 FEW040 20/15 Q1017 NOSIG
EDDEMETAR lang
Erfurt-Bindersleben, Germany (EDDE) 50-59N 010-58E 322M
Sep 26, 2021 - 02:20 PM EDT / 2021.09.26 1820 UTC
Wind: from the W (260 degrees) at 6 MPH (5 KT):0
Visibility: greater than 7 mile(s):0
Sky conditions: mostly clear
Temperature: 68 F (20 C)
Dew Point: 59 F (15 C)
Relative Humidity: 72%
Pressure (altimeter): 30.03 in. Hg (1017 hPa)
ob: EDDE 261820Z 26005KT 9999 FEW040 20/15 Q1017 NOSIG
cycle: 18

Frankfurt a. Main

EDDF

METAR
EDDF 261820Z 24003KT 9000 FEW005 17/17 Q1017 NOSIG
EDDFMETAR lang
Frankfurt / M-Flughafen, Germany (EDDF) 50-03N 008-36E 113M
Sep 26, 2021 - 02:20 PM EDT / 2021.09.26 1820 UTC
Wind: from the WSW (240 degrees) at 3 MPH (3 KT):0
Visibility: 5 mile(s):0
Sky conditions: mostly clear
Temperature: 62 F (17 C)
Dew Point: 62 F (17 C)
Relative Humidity: 100%
Pressure (altimeter): 30.03 in. Hg (1017 hPa)
ob: EDDF 261820Z 24003KT 9000 FEW005 17/17 Q1017 NOSIG
cycle: 18

Münster Osnabrück

EDDG

METAR
EDDG 261820Z 21005KT CAVOK 20/15 Q1015 NOSIG
EDDGMETAR lang
Muenster / Osnabrueck, Germany (EDDG) 52-08N 007-42E 53M
Sep 26, 2021 - 02:20 PM EDT / 2021.09.26 1820 UTC
Wind: from the SSW (210 degrees) at 6 MPH (5 KT):0
Visibility: greater than 7 mile(s):0
Temperature: 68 F (20 C)
Dew Point: 59 F (15 C)
Relative Humidity: 72%
Pressure (altimeter): 29.97 in. Hg (1015 hPa)
ob: EDDG 261820Z 21005KT CAVOK 20/15 Q1015 NOSIG
cycle: 18

Hamburg

EDDH

METAR
EDDH 261820Z 16003KT 110V190 9999 SCT040 19/17 Q1015 NOSIG
EDDHMETAR lang
Hamburg-Fuhlsbuettel, Germany (EDDH) 53-38N 010-00E 15M
Sep 26, 2021 - 02:20 PM EDT / 2021.09.26 1820 UTC
Wind: from the SSE (160 degrees) at 3 MPH (3 KT) (direction variable):0
Visibility: greater than 7 mile(s):0
Sky conditions: partly cloudy
Temperature: 66 F (19 C)
Dew Point: 62 F (17 C)
Relative Humidity: 88%
Pressure (altimeter): 29.97 in. Hg (1015 hPa)
ob: EDDH 261820Z 16003KT 110V190 9999 SCT040 19/17 Q1015 NOSIG
cycle: 18

Köln - Bonn

EDDK

METAR
EDDK 261820Z 14005KT 9999 FEW043 18/16 Q1016 NOSIG
EDDKMETAR lang
Koeln / Bonn, Germany (EDDK) 50-52N 007-10E 100M
Sep 26, 2021 - 02:20 PM EDT / 2021.09.26 1820 UTC
Wind: from the SE (140 degrees) at 6 MPH (5 KT):0
Visibility: greater than 7 mile(s):0
Sky conditions: mostly clear
Temperature: 64 F (18 C)
Dew Point: 60 F (16 C)
Relative Humidity: 88%
Pressure (altimeter): 30.00 in. Hg (1016 hPa)
ob: EDDK 261820Z 14005KT 9999 FEW043 18/16 Q1016 NOSIG
cycle: 18

Düsseldorf

EDDL

METAR
EDDL 261820Z 16007KT 9999 FEW034 19/16 Q1015 NOSIG
EDDLMETAR lang
Duesseldorf, Germany (EDDL) 51-18N 006-46E 41M
Sep 26, 2021 - 02:20 PM EDT / 2021.09.26 1820 UTC
Wind: from the SSE (160 degrees) at 8 MPH (7 KT):0
Visibility: greater than 7 mile(s):0
Sky conditions: mostly clear
Temperature: 66 F (19 C)
Dew Point: 60 F (16 C)
Relative Humidity: 82%
Pressure (altimeter): 29.97 in. Hg (1015 hPa)
ob: EDDL 261820Z 16007KT 9999 FEW034 19/16 Q1015 NOSIG
cycle: 18

München

EDDM

METAR
EDDM 261820Z 33004KT 9999 FEW033CB SCT045 20/13 Q1017 NOSIG
EDDMMETAR lang
Munchen, Germany (EDDM) 48-21N 011-47E
Sep 26, 2021 - 02:20 PM EDT / 2021.09.26 1820 UTC
Wind: from the NNW (330 degrees) at 5 MPH (4 KT):0
Visibility: greater than 7 mile(s):0
Sky conditions: partly cloudy
Weather: Cumulonimbus clouds observed
Temperature: 68 F (20 C)
Dew Point: 55 F (13 C)
Relative Humidity: 64%
Pressure (altimeter): 30.03 in. Hg (1017 hPa)
ob: EDDM 261820Z 33004KT 9999 FEW033CB SCT045 20/13 Q1017 NOSIG
cycle: 18

Nürnberg

EDDN

METAR
EDDN 261820Z 26003KT 9999 VCSH FEW020CB SCT045 19/16 Q1017 TEMPO SHRA
EDDNMETAR lang
Nuernberg, Germany (EDDN) 49-30N 011-03E 318M
Sep 26, 2021 - 02:20 PM EDT / 2021.09.26 1820 UTC
Wind: from the W (260 degrees) at 3 MPH (3 KT):0
Visibility: greater than 7 mile(s):0
Sky conditions: partly cloudy
Weather: showers in the vicinity; Cumulonimbus clouds observed
Temperature: 66 F (19 C)
Dew Point: 60 F (16 C)
Relative Humidity: 82%
Pressure (altimeter): 30.03 in. Hg (1017 hPa)
ob: EDDN 261820Z 26003KT 9999 VCSH FEW020CB SCT045 19/16 Q1017 TEMPO SHRA
cycle: 18

Leipzig - Halle

EDDP

METAR
EDDP 261820Z 11006KT CAVOK 18/15 Q1016 NOSIG
EDDPMETAR lang
Leipzig-Schkeuditz, Germany (EDDP) 51-25N 012-14E 149M
Sep 26, 2021 - 02:20 PM EDT / 2021.09.26 1820 UTC
Wind: from the ESE (110 degrees) at 7 MPH (6 KT):0
Visibility: greater than 7 mile(s):0
Temperature: 64 F (18 C)
Dew Point: 59 F (15 C)
Relative Humidity: 82%
Pressure (altimeter): 30.00 in. Hg (1016 hPa)
ob: EDDP 261820Z 11006KT CAVOK 18/15 Q1016 NOSIG
cycle: 18

Saarbrücken

EDDR

METAR
EDDR 261820Z VRB01KT 9999 FEW023 SCT028TCU 17/16 Q1018 TEMPO 22012KT SHRA SCT020CB
EDDRMETAR lang
Saarbruecken / Ensheim, Germany (EDDR) 49-13N 007-07E 320M
Sep 26, 2021 - 02:20 PM EDT / 2021.09.26 1820 UTC
Wind: Variable at 1 MPH (1 KT):0
Visibility: greater than 7 mile(s):0
Sky conditions: partly cloudy
Weather: Cumulonimbus clouds, towering cumulus clouds observed
Temperature: 62 F (17 C)
Dew Point: 60 F (16 C)
Relative Humidity: 93%
Pressure (altimeter): 30.06 in. Hg (1018 hPa)
ob: EDDR 261820Z VRB01KT 9999 FEW023 SCT028TCU 17/16 Q1018 TEMPO 22012KT SHRA SCT020CB
cycle: 18

Stuttgart

EDDS

METAR
EDDS 261820Z VRB02KT 9999 SCT048 18/14 Q1019 NOSIG
EDDSMETAR lang
Stuttgart-Echterdingen, Germany (EDDS) 48-41N 009-13E 391M
Sep 26, 2021 - 02:20 PM EDT / 2021.09.26 1820 UTC
Wind: Variable at 2 MPH (2 KT):0
Visibility: greater than 7 mile(s):0
Sky conditions: partly cloudy
Temperature: 64 F (18 C)
Dew Point: 57 F (14 C)
Relative Humidity: 77%
Pressure (altimeter): 30.09 in. Hg (1019 hPa)
ob: EDDS 261820Z VRB02KT 9999 SCT048 18/14 Q1019 NOSIG
cycle: 18

Berlin - Tegel

EDDT

METAR
EDDT 090650Z 09006KT 050V120 3000 BR OVC003 06/05 Q1027
EDDTMETAR lang
Berlin-Tegel, Germany (EDDT) 52-34N 013-19E 37M
Nov 09, 2020 - 01:50 AM EST / 2020.11.09 0650 UTC
Wind: from the E (090 degrees) at 7 MPH (6 KT) (direction variable):0
Visibility: 1 mile(s):0
Sky conditions: overcast
Weather: mist
Temperature: 42 F (6 C)
Dew Point: 41 F (5 C)
Relative Humidity: 93%
Pressure (altimeter): 30.33 in. Hg (1027 hPa)
ob: EDDT 090650Z 09006KT 050V120 3000 BR OVC003 06/05 Q1027
cycle: 7

Hannover

EDDV

METAR
EDDV 261820Z VRB01KT 9999 FEW038 19/18 Q1015 NOSIG
EDDVMETAR lang
Hannover, Germany (EDDV) 52-28N 009-41E 59M
Sep 26, 2021 - 02:20 PM EDT / 2021.09.26 1820 UTC
Wind: Variable at 1 MPH (1 KT):0
Visibility: greater than 7 mile(s):0
Sky conditions: mostly clear
Temperature: 66 F (19 C)
Dew Point: 64 F (18 C)
Relative Humidity: 93%
Pressure (altimeter): 29.97 in. Hg (1015 hPa)
ob: EDDV 261820Z VRB01KT 9999 FEW038 19/18 Q1015 NOSIG
cycle: 18

Bremen

EDDW

METAR
EDDW 261820Z 00000KT CAVOK 18/16 Q1014 NOSIG
EDDWMETAR lang
Bremen, Germany (EDDW) 53-03N 008-48E 5M
Sep 26, 2021 - 02:20 PM EDT / 2021.09.26 1820 UTC
Wind: Calm:0
Visibility: greater than 7 mile(s):0
Temperature: 64 F (18 C)
Dew Point: 60 F (16 C)
Relative Humidity: 88%
Pressure (altimeter): 29.94 in. Hg (1014 hPa)
ob: EDDW 261820Z 00000KT CAVOK 18/16 Q1014 NOSIG
cycle: 18